Latest Weather Observations for Palmerville

IDQ60801

Issued at 10:05 pm EST Friday 21 November 2014 (issued every 30 minutes, with the page automatically refreshed every 10 minutes)

About weather observations | Map of weather stations | Latest weather observations for QLD | Other Formats
Station Details ID: 028004 Name: PALMERVILLE Lat: -16.00 Lon: 144.08 Height: 203.8 m
Data from the previous 72 hours. | See also: Recent months at Palmerville
Date/Time
EST
Temp
°C
App
Temp
°C
Dew
Point
Rel
Hum
%
Delta-T
°C
Wind Press
QNH
hPa
Press
MSL
hPa
Rain
since 9 am
mm
Dir
 
Spd
km/h
Gust
km/h
Spd
kts
Gust
kts
21/10:00pm 26.7 27.5 19.8 66 4.5 NNE 15 20 8 11 1012.6 1011.2 0.0
21/09:30pm 27.4 28.0 19.5 62 5.2 NNE 15 24 8 13 1012.3 1010.9 0.0
21/09:00pm 28.2 27.5 19.4 59 5.8 NNE 22 30 12 16 1011.7 1010.3 0.0
21/08:30pm 29.2 28.9 19.2 54 6.5 NNE 19 26 10 14 1011.1 1009.7 0.0
21/08:00pm 30.2 30.0 18.6 49 7.5 NNE 17 26 9 14 1010.6 1009.2 0.0
21/07:30pm 31.0 30.0 18.0 45 8.4 NNE 20 32 11 17 1010.1 1008.7 0.0
21/07:00pm 32.2 31.7 16.9 40 9.8 NNE 15 26 8 14 1009.7 1008.3 0.0
21/06:30pm 33.5 32.1 15.5 34 11.3 NE 17 26 9 14 1009.1 1007.6 0.0
21/06:00pm 35.1 32.9 14.9 29 12.7 NNE 20 30 11 16 1008.7 1007.2 0.0
21/05:30pm 36.5 34.1 14.5 27 13.8 NNE 20 30 11 16 1008.2 1006.7 0.0
21/05:00pm 37.7 35.4 13.0 23 15.2 N 17 26 9 14 1007.9 1006.4 0.0
21/04:30pm 38.5 36.5 11.5 20 16.3 N 13 20 7 11 1007.7 1006.3 0.0
21/04:00pm 38.9 35.9 11.9 20 16.5 NNE 19 24 10 13 1008.0 1006.5 0.0
21/03:30pm 38.6 36.6 11.6 20 16.3 NE 13 22 7 12 1008.3 1006.8 0.0
21/03:00pm 38.8 37.3 11.8 20 16.4 NNE 11 19 6 10 1008.6 1007.1 0.0
21/02:30pm 38.8 37.7 11.8 20 16.4 ESE 9 26 5 14 1009.0 1007.5 0.0
21/02:00pm 37.5 36.0 10.7 20 16.0 ENE 9 15 5 8 1009.7 1008.3 0.0
21/01:30pm 38.3 37.2 12.1 21 16.0 N 9 17 5 9 1010.3 1008.9 0.0
21/01:00pm 37.9 36.6 12.5 22 15.6 ENE 11 17 6 9 1010.8 1009.4 0.0
21/12:30pm 37.8 36.7 14.4 25 14.7 N 13 19 7 10 1011.4 1010.0 0.0
21/12:00pm 37.1 37.4 14.4 26 14.2 NNE 6 11 3 6 1011.8 1010.4 0.0
21/11:30am 36.1 35.9 14.7 28 13.4 E 9 17 5 9 1012.4 1011.0 0.0
21/11:00am 34.0 34.1 14.5 31 12.1 NE 7 13 4 7 1013.1 1011.6 0.0
21/10:30am 34.1 35.0 16.5 35 11.2 S 7 13 4 7 1013.5 1012.0 0.0
21/10:00am 31.8 33.0 17.3 42 9.3 NNE 7 13 4 7 1014.1 1012.7 0.0
21/09:30am 31.1 31.9 17.4 44 8.8 SE 9 19 5 10 1014.4 1013.0 0.0
21/09:00am 29.5 31.0 18.0 50 7.4 SSW 7 11 4 6 1014.6 1013.2 0.0
21/08:30am 28.7 30.4 18.5 54 6.6 SE 7 13 4 7 1014.4 1013.0 0.0
21/08:00am 27.5 29.4 19.0 59 5.5 SE 7 13 4 7 1014.4 1013.0 0.0
21/07:30am 26.1 29.4 19.2 65 4.5 CALM 0 2 0 1 1014.0 1012.5 0.0
21/07:00am 24.8 27.4 19.2 71 3.6 SSE 4 7 2 4 1013.8 1012.3 0.0
21/06:30am 22.8 26.2 19.4 81 2.2 CALM 0 0 0 0 1013.4 1011.9 0.0
21/06:00am 21.7 24.9 18.9 84 1.8 CALM 0 0 0 0 1013.1 1011.6 0.0
21/05:30am 22.4 25.6 18.8 80 2.3 CALM 0 0 0 0 1012.4 1011.0 0.0
21/05:00am 23.1 25.3 19.3 79 2.4 NE 6 9 3 5 1012.1 1010.7 0.0
21/04:30am 23.3 25.5 19.5 79 2.5 NE 7 11 4 6 1011.9 1010.5 0.0
21/04:00am 23.5 25.7 19.2 77 2.8 NE 6 11 3 6 1011.8 1010.4 0.0
21/03:30am 23.9 25.2 19.4 76 2.9 NE 11 17 6 9 1011.6 1010.2 0.0
21/03:00am 24.2 25.6 19.5 75 3.0 NE 11 19 6 10 1011.8 1010.4 0.0
21/02:30am 24.5 25.2 19.6 74 3.2 NNE 15 20 8 11 1011.8 1010.4 0.0
21/02:00am 24.7 26.1 19.5 73 3.4 NE 11 19 6 10 1012.0 1010.6 0.0
21/01:30am 25.0 26.4 19.6 72 3.5 NNE 11 17 6 9 1012.1 1010.7 0.0
21/01:00am 25.2 26.1 19.3 70 3.8 NE 13 20 7 11 1012.4 1011.0 0.0
21/12:30am 25.6 27.0 19.5 69 4.0 NE 11 15 6 8 1012.6 1011.2 0.0
21/12:00am 26.1 27.0 19.2 65 4.5 ENE 13 20 7 11 1012.8 1011.4 0.0
 
Date/Time
EST
Temp
°C
App
Temp
°C
Dew
Point
Rel
Hum
%
Delta-T
°C
Wind Press
QNH
hPa
Press
MSL
hPa
Rain
since 9 am
mm
Dir
 
Spd
km/h
Gust
km/h
Spd
kts
Gust
kts
20/11:30pm 26.5 28.1 19.1 64 4.8 NE 9 13 5 7 1012.8 1011.4 0.0
20/11:00pm 27.0 28.3 19.4 63 5.0 NE 11 19 6 10 1012.8 1011.4 0.0
20/10:30pm 27.4 28.1 18.9 59 5.5 NE 13 20 7 11 1012.6 1011.2 0.0
20/10:00pm 28.0 27.9 18.7 57 6.0 NE 17 28 9 15 1012.5 1011.1 0.0
20/09:30pm 28.5 28.9 19.1 56 6.1 NE 15 30 8 16 1012.2 1010.8 0.0
20/09:00pm 29.2 28.7 19.2 54 6.5 NNE 20 30 11 16 1012.0 1010.6 0.0
20/08:30pm 30.0 30.3 18.8 51 7.3 NNE 15 20 8 11 1011.9 1010.5 0.0
20/08:00pm 30.6 30.3 18.3 47 8.0 NNE 17 22 9 12 1011.6 1010.2 0.0
20/07:30pm 31.5 30.6 17.8 44 8.8 NNE 19 32 10 17 1011.0 1009.6 0.0
20/07:00pm 32.7 31.9 16.1 37 10.5 NNE 15 24 8 13 1010.5 1009.1 0.0
20/06:30pm 33.9 32.1 14.4 31 12.1 N 17 26 9 14 1010.0 1008.6 0.0
20/06:00pm 35.0 33.0 13.8 28 13.1 NNE 17 22 9 12 1009.6 1008.1 0.0
20/05:30pm 35.8 34.4 13.3 26 13.8 NE 13 20 7 11 1009.2 1007.7 0.0
20/05:00pm 36.1 34.6 13.0 25 14.2 NNE 13 24 7 13 1009.0 1007.5 0.0
20/04:30pm 37.3 36.1 12.7 23 15.1 ENE 11 20 6 11 1009.0 1007.5 0.0
20/04:00pm 36.7 35.5 12.8 24 14.6 N 11 20 6 11 1009.2 1007.7 0.0
20/03:30pm 37.0 36.3 13.1 24 14.7 N 9 20 5 11 1009.4 1007.9 0.0
20/03:00pm 37.6 35.5 12.3 22 15.4 E 15 28 8 15 1009.7 1008.3 0.0
20/02:30pm 37.1 35.8 12.5 23 15.0 SSE 11 15 6 8 1010.1 1008.7 0.0
20/02:00pm 37.2 35.9 12.6 23 15.0 S 11 26 6 14 1010.6 1009.2 0.0
20/01:30pm 36.9 35.4 13.0 24 14.7 E 13 20 7 11 1011.2 1009.8 0.0
20/01:00pm 36.2 34.9 13.6 25 14.0 NE 13 20 7 11 1012.0 1010.6 0.0
20/12:30pm 35.3 34.3 13.5 27 13.4 NNE 11 20 6 11 1012.5 1011.1 0.0
20/12:00pm 35.7 35.4 15.4 29 12.8 E 11 20 6 11 1013.2 1011.7 0.0
20/11:30am 34.2 32.6 15.1 31 12.0 N 17 26 9 14 1013.7 1012.2 0.0
20/11:00am 33.5 32.7 15.0 32 11.5 NNE 13 24 7 13 1014.2 1012.8 0.0
20/10:30am 32.6 30.7 15.1 34 10.9 NE 19 24 10 13 1014.7 1013.3 0.0
20/10:00am 32.3 31.1 16.2 38 10.2 E 17 30 9 16 1015.0 1013.6 0.0
20/09:30am 31.2 30.8 17.1 42 9.0 E 15 26 8 14 1015.1 1013.7 0.0
20/09:00am 30.0 29.4 17.5 47 8.0 ENE 17 28 9 15 1015.2 1013.8 0.0
20/08:30am 29.4 28.8 18.5 52 7.1 ENE 19 28 10 15 1015.1 1013.7 0.0
20/08:00am 28.0 28.1 19.2 58 5.7 ENE 17 28 9 15 1014.8 1013.4 0.0
20/07:30am 26.4 28.0 20.0 68 4.2 ENE 11 15 6 8 1014.5 1013.1 0.0
20/07:00am 25.0 27.4 20.0 74 3.3 ENE 7 11 4 6 1014.2 1012.8 0.0
20/06:30am 23.5 25.8 19.8 80 2.4 E 7 11 4 6 1014.0 1012.5 0.0
20/06:00am 21.9 24.7 19.6 87 1.5 E 4 9 2 5 1013.8 1012.3 0.0
20/05:30am 22.0 25.3 19.2 84 1.8 CALM 0 0 0 0 1013.7 1012.2 0.0
20/05:00am 22.3 25.7 19.3 83 1.9 CALM 0 0 0 0 1013.4 1011.9 0.0
20/04:30am 23.0 26.3 19.2 79 2.4 CALM 0 0 0 0 1013.3 1011.8 0.0
20/04:00am 24.0 26.6 20.1 79 2.5 N 6 9 3 5 1012.8 1011.4 0.0
20/03:30am 24.2 26.6 19.7 76 2.9 NNE 6 9 3 5 1012.8 1011.4 0.0
20/03:00am 24.3 26.8 19.8 76 2.9 NNE 6 11 3 6 1012.5 1011.1 0.0
20/02:30am 24.8 27.2 20.1 75 3.1 NE 7 17 4 9 1012.3 1010.9 0.0
20/02:00am 25.0 26.6 20.0 74 3.3 ENE 11 19 6 10 1012.2 1010.8 0.0
20/01:30am 25.3 26.5 19.9 72 3.5 ENE 13 19 7 10 1012.2 1010.8 0.0
20/01:00am 25.3 26.8 19.7 71 3.6 ENE 11 19 6 10 1012.5 1011.1 0.0
20/12:30am 25.6 26.6 19.5 69 4.0 NE 13 28 7 15 1012.7 1011.3 0.0
20/12:00am 25.8 26.8 19.4 67 4.2 NE 13 26 7 14 1013.2 1011.7 0.0
 
Date/Time
EST
Temp
°C
App
Temp
°C
Dew
Point
Rel
Hum
%
Delta-T
°C
Wind Press
QNH
hPa
Press
MSL
hPa
Rain
since 9 am
mm
Dir
 
Spd
km/h
Gust
km/h
Spd
kts
Gust
kts
19/11:30pm 26.1 26.6 19.2 65 4.5 NE 15 26 8 14 1013.6 1012.1 0.0
19/11:00pm 26.5 27.6 18.9 63 4.9 NE 11 17 6 9 1013.6 1012.1 0.0
19/10:30pm 26.9 27.5 18.7 60 5.3 NE 13 24 7 13 1013.5 1012.0 0.0
19/10:00pm 27.4 27.5 18.4 58 5.8 NE 15 24 8 13 1013.3 1011.8 0.0
19/09:30pm 27.8 28.5 18.8 58 5.8 NNE 13 20 7 11 1013.2 1011.7 0.0
19/09:00pm 28.4 28.0 18.8 56 6.2 NNE 19 32 10 17 1012.6 1011.2 0.0
19/08:30pm 29.3 28.9 18.1 51 7.2 NE 17 24 9 13 1012.1 1010.7 0.0
19/08:00pm 30.0 30.1 17.5 47 8.0 NE 13 19 7 10 1011.9 1010.5 0.0
19/07:30pm 30.8 29.6 17.1 43 8.7 NE 19 32 10 17 1011.7 1010.3 0.0
19/07:00pm 31.7 30.4 16.8 40 9.5 NNE 19 32 10 17 1011.2 1009.8 0.0
19/06:30pm 32.9 31.2 16.3 37 10.5 NNE 20 33 11 18 1010.8 1009.4 0.0
19/06:00pm 34.0 32.0 15.4 32 11.7 NNE 20 37 11 20 1010.3 1008.9 0.0
19/05:30pm 35.8 33.0 14.4 27 13.3 NNE 22 32 12 17 1009.7 1008.3 0.0
19/05:00pm 36.9 33.7 14.2 25 14.2 NE 24 35 13 19 1009.3 1007.8 0.0
19/04:58pm 36.7 32.5 13.5 25 14.3 NE 28 35 15 19 1009.3 1007.8 0.0
19/04:30pm 38.2 37.1 10.5 19 16.5 E 7 15 4 8 1009.2 1007.7 0.0
19/04:00pm 38.6 37.6 10.9 19 16.6 S 7 13 4 7 1009.3 1007.8 0.0
19/03:30pm 39.2 38.5 12.1 20 16.6 NE 7 15 4 8 1009.5 1008.0 0.0
19/03:00pm 38.2 36.7 12.0 21 16.0 ENE 11 20 6 11 1009.9 1008.5 0.0
19/02:30pm 38.4 37.2 12.9 22 15.7 NNE 11 20 6 11 1010.1 1008.7 0.0
19/02:00pm 37.5 36.9 13.5 24 14.9 NE 9 15 5 8 1010.7 1009.3 0.0
19/01:30pm 36.8 36.0 14.1 25 14.1 WSW 11 20 6 11 1011.3 1009.9 0.0
19/01:00pm 37.1 37.0 15.0 27 14.0 SSE 9 13 5 7 1012.0 1010.6 0.0
19/12:30pm 37.2 36.6 15.6 27 13.8 SE 13 19 7 10 1012.7 1011.3 0.0
19/12:00pm 34.6 35.0 16.4 33 11.6 N 9 17 5 9 1013.4 1011.9 0.0
19/11:30am 35.5 36.3 17.2 33 11.9 N 9 19 5 10 1014.0 1012.5 0.0
19/11:00am 34.1 33.8 16.5 35 11.2 NNE 13 22 7 12 1014.6 1013.2 0.0
19/10:30am 33.4 34.0 16.7 36 10.7 NE 9 19 5 10 1015.0 1013.6 0.0
19/10:00am 32.1 31.7 17.2 41 9.5 NNE 15 20 8 11 1015.5 1014.1 0.0
19/09:30am 31.9 32.2 17.8 43 9.1 ENE 13 20 7 11 1015.8 1014.4 0.0
19/09:00am 30.2 30.7 18.3 49 7.7 NE 13 22 7 12 1015.9 1014.5 0.0
19/08:30am 29.3 29.6 18.7 52 6.9 NNE 15 22 8 12 1016.1 1014.7 0.0
19/08:00am 27.9 29.4 18.9 58 5.8 NE 9 19 5 10 1016.1 1014.7 0.0
19/07:30am 27.3 29.4 19.4 62 5.2 E 7 13 4 7 1016.0 1014.6 0.0
19/07:00am 26.4 29.5 19.5 66 4.5 ESE 2 9 1 5 1015.6 1014.2 0.0
19/06:30am 24.9 28.6 19.9 74 3.3 CALM 0 0 0 0 1015.1 1013.7 0.0
19/06:00am 23.3 26.8 19.5 79 2.4 CALM 0 0 0 0 1014.5 1013.1 0.0
19/05:30am 23.6 26.8 18.9 75 3.0 CALM 0 0 0 0 1014.3 1012.9 0.0
19/05:00am 24.6 27.5 19.9 75 3.1 NNE 4 7 2 4 1014.0 1012.5 0.0
19/04:30am 24.7 26.8 20.2 76 2.9 NE 9 13 5 7 1013.6 1012.1 0.0
19/04:00am 24.9 27.0 20.2 75 3.1 NE 9 15 5 8 1013.6 1012.1 0.0
19/03:30am 25.1 26.5 20.4 75 3.1 NNE 13 17 7 9 1012.9 1011.5 0.0
19/03:00am 25.3 27.0 20.1 73 3.4 NE 11 17 6 9 1013.3 1011.8 0.0
19/02:30am 25.5 27.3 20.3 73 3.4 NE 11 24 6 13 1013.5 1012.0 0.0
19/02:00am 25.7 27.5 20.3 72 3.5 NE 11 17 6 9 1013.8 1012.3 0.0
19/01:30am 25.8 27.1 20.1 71 3.7 NE 13 20 7 11 1014.0 1012.5 0.0
19/01:00am 26.0 26.5 20.1 70 3.9 ENE 17 24 9 13 1014.3 1012.9 0.0
19/12:30am 26.1 26.2 20.0 69 4.0 NE 19 33 10 18 1014.8 1013.4 0.0
19/12:00am 26.4 27.2 19.8 67 4.3 NE 15 26 8 14 1014.9 1013.5 0.0
 
Date/Time
EST
Temp
°C
App
Temp
°C
Dew
Point
Rel
Hum
%
Delta-T
°C
Wind Press
QNH
hPa
Press
MSL
hPa
Rain
since 9 am
mm
Dir
 
Spd
km/h
Gust
km/h
Spd
kts
Gust
kts
18/11:30pm 26.8 27.9 19.7 65 4.6 NE 13 17 7 9 1015.0 1013.6 0.0
18/11:00pm 27.3 28.6 19.4 62 5.1 NE 11 17 6 9 1015.1 1013.7 0.0
18/10:30pm 27.9 28.0 19.1 58 5.7 NNE 17 24 9 13 1015.0 1013.6 0.0

Other Formats:

Comma delimited format used in spreadsheet applications
http://www.bom.gov.au/fwo/IDQ60801/IDQ60801.94276.axf

JavaScript Object Notation format (JSON) in row-major order
http://www.bom.gov.au/fwo/IDQ60801/IDQ60801.94276.json